createdAt,value
2023-03-02T00:03:26.931Z,0.64
2023-03-02T00:08:19.657Z,-0.05
2023-03-02T00:13:12.766Z,-0.53
2023-03-02T00:18:04.466Z,0.52
2023-03-02T00:22:56.091Z,0.48
2023-03-02T00:27:47.911Z,-0.14
2023-03-02T00:32:39.730Z,-1.84
2023-03-02T00:37:31.984Z,-0.38
2023-03-02T00:42:23.740Z,0.27
2023-03-02T00:47:15.447Z,-0.58
2023-03-02T00:52:07.146Z,-0.64
2023-03-02T00:56:58.861Z,-0.04
2023-03-02T01:01:57.859Z,-0.81
2023-03-02T01:06:51.111Z,0.16
2023-03-02T01:11:42.752Z,-3.81
2023-03-02T01:16:35.953Z,0.01
2023-03-02T01:21:28.189Z,-0.07
2023-03-02T01:26:19.964Z,-0.98
2023-03-02T01:31:13.462Z,-0.11
2023-03-02T01:36:05.775Z,-1.11
2023-03-02T01:40:58.222Z,-0.14
2023-03-02T01:45:57.384Z,-0.11
2023-03-02T01:51:06.622Z,-0.11
2023-03-02T01:56:02.327Z,-0.12
2023-03-02T02:00:56.151Z,-2.14
2023-03-02T02:06:00.502Z,-0.93
2023-03-02T02:10:54.102Z,-0.18
2023-03-02T02:15:46.276Z,-1.65
2023-03-02T02:20:41.252Z,-0.87
2023-03-02T02:25:36.071Z,-0.29
2023-03-02T02:30:28.251Z,-1.32
2023-03-02T02:35:24.402Z,-2.53
2023-03-02T02:40:23.080Z,-1.42
2023-03-02T02:45:21.184Z,-0.28
2023-03-02T02:50:25.050Z,-0.33
2023-03-02T02:55:21.457Z,-0.94
2023-03-02T03:00:21.499Z,-0.42
2023-03-02T03:05:14.946Z,-1.29
2023-03-02T03:10:40.499Z,-1.54
2023-03-02T03:15:32.913Z,-1.78
2023-03-02T03:20:26.781Z,-0.52
2023-03-02T03:25:19.851Z,-2.36
2023-03-02T03:30:14.839Z,-0.93
2023-03-02T03:35:10.896Z,-3.98
2023-03-02T03:40:04.472Z,-1.37
2023-03-02T03:44:56.898Z,-1.55
2023-03-02T03:49:49.518Z,-0.71
2023-03-02T03:54:41.852Z,-3.52
2023-03-02T03:59:34.144Z,-0.64
2023-03-02T04:04:33.436Z,-0.83
2023-03-02T04:09:28.241Z,-0.90
2023-03-02T04:14:22.966Z,-0.72
2023-03-02T04:19:17.580Z,-1.10
2023-03-02T04:24:14.028Z,-2.80
2023-03-02T04:29:06.921Z,-1.44
2023-03-02T04:34:04.224Z,-1.91
2023-03-02T04:38:57.510Z,-2.15
2023-03-02T04:43:49.752Z,-1.27
2023-03-02T04:48:41.590Z,-1.14
2023-03-02T04:53:33.288Z,-1.39
2023-03-02T04:58:25.597Z,-1.39
2023-03-02T05:03:17.349Z,-2.74
2023-03-02T05:08:09.016Z,-1.20
2023-03-02T05:13:05.195Z,-2.32
2023-03-02T05:17:57.640Z,-2.48
2023-03-02T05:22:49.292Z,-1.22
2023-03-02T05:27:41.405Z,-1.12
2023-03-02T05:32:33.127Z,-3.61
2023-03-02T05:37:25.003Z,-2.40
2023-03-02T05:42:16.674Z,-2.41
2023-03-02T05:47:08.505Z,-4.31
2023-03-02T05:52:00.202Z,-1.19
2023-03-02T05:56:51.886Z,-2.26
2023-03-02T06:01:43.556Z,-1.22
2023-03-02T06:06:35.786Z,-1.21
2023-03-02T06:11:28.193Z,-1.78
2023-03-02T06:16:20.003Z,-1.57
2023-03-02T06:21:11.673Z,-1.69
2023-03-02T06:26:13.183Z,-0.96
2023-03-02T06:31:05.115Z,-2.56
2023-03-02T06:35:57.417Z,-3.79
2023-03-02T06:40:49.223Z,-0.71
2023-03-02T06:45:41.559Z,-0.64
2023-03-02T06:50:33.823Z,-0.49
2023-03-02T06:55:26.900Z,-0.70
2023-03-02T07:00:25.994Z,-1.08
2023-03-02T07:05:18.163Z,-0.86
2023-03-02T07:10:13.345Z,-1.17
2023-03-02T07:15:11.020Z,0.20
2023-03-02T07:20:05.685Z,-0.72
2023-03-02T07:24:58.187Z,0.29
2023-03-02T07:29:49.871Z,4.30
2023-03-02T07:34:41.558Z,6.67
2023-03-02T07:39:33.290Z,7.36
2023-03-02T07:44:24.994Z,9.07
2023-03-02T07:49:16.625Z,10.18
2023-03-02T07:54:08.568Z,8.93
2023-03-02T07:59:00.220Z,10.67
2023-03-02T08:03:51.970Z,11.68
2023-03-02T08:08:44.060Z,11.88
2023-03-02T08:13:36.103Z,12.21
2023-03-02T08:18:28.152Z,11.42
2023-03-02T08:23:20.053Z,11.94
2023-03-02T08:28:11.849Z,12.57
2023-03-02T08:33:06.925Z,8.67
2023-03-02T08:37:59.718Z,12.75
2023-03-02T08:42:56.962Z,12.50
2023-03-02T08:47:48.586Z,12.61
2023-03-02T08:52:43.624Z,13.18
2023-03-02T08:57:35.251Z,12.70
2023-03-02T09:02:26.944Z,12.58
2023-03-02T09:07:18.667Z,12.68
2023-03-02T09:12:10.627Z,9.28
2023-03-02T09:17:02.374Z,12.52
2023-03-02T09:21:54.233Z,9.68
2023-03-02T09:26:45.927Z,11.91
2023-03-02T09:31:38.292Z,8.58
2023-03-02T09:36:32.608Z,11.73
2023-03-02T09:42:11.949Z,10.62
2023-03-02T09:47:09.810Z,10.05
2023-03-02T09:52:29.793Z,10.18
2023-03-02T09:57:29.401Z,9.96
2023-03-02T10:02:32.949Z,7.94
2023-03-02T10:07:37.007Z,9.01
2023-03-02T10:13:00.096Z,9.94
2023-03-02T10:18:12.207Z,9.59
2023-03-02T10:23:27.864Z,7.68
2023-03-02T10:28:24.126Z,7.29
2023-03-02T10:33:19.148Z,8.88
2023-03-02T10:38:17.058Z,9.12
2023-03-02T10:43:19.089Z,8.90
2023-03-02T10:48:13.846Z,7.65
2023-03-02T10:53:19.629Z,6.41
2023-03-02T10:58:31.320Z,9.01
2023-03-02T11:03:23.650Z,9.04
2023-03-02T11:08:21.349Z,8.23
2023-03-02T11:13:29.851Z,9.08
2023-03-02T11:18:25.290Z,8.01
2023-03-02T11:23:19.808Z,7.83
2023-03-02T11:28:28.559Z,8.02
2023-03-02T11:33:29.502Z,9.20
2023-03-02T11:38:34.070Z,8.89
2023-03-02T11:43:26.566Z,7.33
2023-03-02T11:48:36.783Z,9.63
2023-03-02T11:53:51.678Z,9.56
2023-03-02T11:58:48.308Z,8.82
2023-03-02T12:03:42.632Z,10.06
2023-03-02T12:08:39.270Z,10.19
2023-03-02T12:13:38.381Z,10.33
2023-03-02T12:18:42.391Z,7.47
2023-03-02T12:23:41.387Z,8.93
2023-03-02T12:28:38.901Z,9.92
2023-03-02T12:33:31.243Z,10.59
2023-03-02T12:38:37.332Z,10.32
2023-03-02T12:43:57.792Z,10.99
2023-03-02T12:48:57.182Z,11.08
2023-03-02T12:54:05.303Z,11.03
2023-03-02T12:58:56.954Z,10.81
2023-03-02T13:03:48.916Z,10.37
2023-03-02T13:08:44.705Z,11.55
2023-03-02T13:13:41.396Z,10.11
2023-03-02T13:18:36.600Z,11.59
2023-03-02T13:23:30.525Z,11.72
2023-03-02T13:28:38.467Z,11.81
2023-03-02T13:33:32.520Z,11.81
2023-03-02T13:38:28.708Z,10.86
2023-03-02T13:43:26.381Z,11.80
2023-03-02T13:48:18.920Z,9.68
2023-03-02T13:53:11.436Z,10.09
2023-03-02T13:58:03.968Z,10.20
2023-03-02T14:02:55.694Z,12.07
2023-03-02T14:07:48.646Z,11.42
2023-03-02T14:12:42.516Z,11.56
2023-03-02T14:17:35.315Z,12.14
2023-03-02T14:22:30.240Z,12.07
2023-03-02T14:27:24.657Z,11.89
2023-03-02T14:32:16.397Z,11.11
2023-03-02T14:37:13.651Z,11.74
2023-03-02T14:42:06.529Z,10.34
2023-03-02T14:46:58.645Z,9.74
2023-03-02T14:52:23.496Z,11.78
2023-03-02T14:57:21.638Z,11.88
2023-03-02T15:02:24.797Z,9.87
2023-03-02T15:07:20.176Z,11.43
2023-03-02T15:12:12.514Z,11.15
2023-03-02T15:17:04.568Z,10.82
2023-03-02T15:21:57.798Z,11.34
2023-03-02T15:26:51.648Z,8.54
2023-03-02T15:31:43.794Z,11.22
2023-03-02T15:36:35.573Z,10.46
2023-03-02T15:41:27.324Z,10.71
2023-03-02T15:46:20.309Z,7.85
2023-03-02T15:51:12.097Z,10.31
2023-03-02T15:56:11.133Z,10.69
2023-03-02T16:01:12.776Z,10.19
2023-03-02T16:06:05.103Z,10.50
2023-03-02T16:11:03.197Z,10.38
2023-03-02T16:15:54.890Z,7.93
2023-03-02T16:20:46.613Z,8.10
2023-03-02T16:25:41.035Z,8.13
2023-03-02T16:30:33.713Z,8.95
2023-03-02T16:35:26.165Z,9.29
2023-03-02T16:40:17.964Z,9.54
2023-03-02T16:45:10.209Z,8.43
2023-03-02T16:50:03.422Z,9.21
2023-03-02T16:54:55.208Z,9.04
2023-03-02T16:59:47.017Z,8.66
2023-03-02T17:04:38.822Z,7.82
2023-03-02T17:09:31.523Z,7.45
2023-03-02T17:14:23.228Z,7.07
2023-03-02T17:19:14.897Z,6.63
2023-03-02T17:24:07.400Z,8.07
2023-03-02T17:28:59.022Z,5.55
2023-03-02T17:33:50.669Z,6.00
2023-03-02T17:38:42.303Z,5.25
2023-03-02T17:43:35.836Z,4.24
2023-03-02T17:48:27.571Z,5.22
2023-03-02T17:53:20.670Z,7.33
2023-03-02T17:58:12.452Z,7.28
2023-03-02T18:03:04.145Z,7.33
2023-03-02T18:07:57.271Z,5.76
2023-03-02T18:12:51.674Z,5.21
2023-03-02T18:17:44.464Z,6.35
2023-03-02T18:22:36.242Z,7.06
2023-03-02T18:27:27.973Z,5.19
2023-03-02T18:32:19.924Z,6.68
2023-03-02T18:37:12.855Z,4.63
2023-03-02T18:42:06.237Z,6.60
2023-03-02T18:46:58.827Z,5.95
2023-03-02T18:51:50.692Z,5.59
2023-03-02T18:56:42.493Z,5.06
2023-03-02T19:01:34.339Z,5.17
2023-03-02T19:06:26.259Z,6.13
2023-03-02T19:11:17.937Z,4.44
2023-03-02T19:16:09.755Z,5.00
2023-03-02T19:21:01.665Z,4.15
2023-03-02T19:25:54.743Z,5.54
2023-03-02T19:30:46.518Z,4.40
2023-03-02T19:35:38.841Z,5.42
2023-03-02T19:40:31.110Z,4.44
2023-03-02T19:45:28.741Z,5.57
2023-03-02T19:50:21.833Z,2.83
2023-03-02T19:55:15.736Z,4.19
2023-03-02T20:00:13.514Z,4.56
2023-03-02T20:05:05.796Z,4.87
2023-03-02T20:09:57.477Z,2.30
2023-03-02T20:14:51.146Z,4.65
2023-03-02T20:19:46.972Z,1.78
2023-03-02T20:24:39.962Z,4.49
2023-03-02T20:29:31.890Z,3.78
2023-03-02T20:34:24.566Z,4.27
2023-03-02T20:39:23.825Z,4.18
2023-03-02T20:44:18.172Z,4.10
2023-03-02T20:49:15.145Z,4.01
2023-03-02T20:54:09.100Z,2.25
2023-03-02T20:59:01.547Z,2.54
2023-03-02T21:03:53.368Z,2.35
2023-03-02T21:08:45.086Z,3.58
2023-03-02T21:13:39.307Z,2.94
2023-03-02T21:18:31.036Z,2.35
2023-03-02T21:23:22.895Z,1.89
2023-03-02T21:28:14.859Z,3.35
2023-03-02T21:33:07.243Z,2.06
2023-03-02T21:38:04.690Z,1.99
2023-03-02T21:42:56.936Z,3.14
2023-03-02T21:47:49.512Z,2.35
2023-03-02T21:52:41.127Z,3.02
2023-03-02T21:57:32.894Z,2.17
2023-03-02T22:02:24.536Z,0.53
2023-03-02T22:07:16.334Z,2.81
2023-03-02T22:12:15.000Z,0.39
2023-03-02T22:17:19.887Z,1.82
2023-03-02T22:22:30.516Z,0.35
2023-03-02T22:27:30.564Z,1.77
2023-03-02T22:32:25.721Z,1.22
2023-03-02T22:37:23.963Z,1.30
2023-03-02T22:42:17.727Z,1.22
2023-03-02T22:47:15.905Z,2.18
2023-03-02T22:52:23.078Z,0.38
2023-03-02T22:57:30.269Z,1.11
2023-03-02T23:02:25.154Z,0.80
2023-03-02T23:07:21.993Z,0.75
2023-03-02T23:12:13.680Z,1.83
2023-03-02T23:17:14.972Z,1.74
2023-03-02T23:22:06.778Z,-0.01
2023-03-02T23:26:58.519Z,-0.13
2023-03-02T23:31:50.371Z,0.34
2023-03-02T23:36:42.753Z,0.72
2023-03-02T23:41:35.626Z,1.18
2023-03-02T23:46:27.394Z,-0.04
2023-03-02T23:51:19.679Z,1.23
2023-03-02T23:56:11.740Z,-1.16
